Pineville, Missouri
Current Conditions -  °F | °C
As of 8:55 AM on Tuesday 21 Oct 2014 (Local Time) from KVBT Reporting Station
Overcast Overcast  
Wind Chill: 52°   Ceiling: 200
Heat Index: 52°   Visibility: 0mi
Dew Point: 48°   Wind: 3mph
Humidity: 88%   Direction: 180°S
Pressure: 30.15"   Gusts: NA
Location:  36.59°N, 94.38°W
Report Text: KVBT 211355Z AUTO 18003KT M1/4SM OVC002 11/09 A3015 RMK AO1
Loading
Personal Weather Stations






























Interactive Weather Map
Tropical Storm Tracking
New forecast layout! Learn more

10-Day Weather Forecast

Advertisements
Track Severe Weather on mobile